Auburn, NH

4:07 PM EST on November 22, 2014 (GMT -0500)
Willow Court | Change Station
CLOSE
Current Station
Personal Weather Station
Location: Auburn, NH
Elevation: 423 ft
Nearby Weather Stations

Elev 423 ft 42.97 °N, 71.32 °W | Updated 2 minutes ago

Mostly Cloudy
Mostly Cloudy
37.0 °F
Feels Like 37 °F
N
1.0
Wind Variable Wind from West
Gusts 1.0 mph

Today
High -- | Low -- °F
--% Chance of Precip.
Yesterday
High -- | Low -- °F
Precip. -- in
6:46 AM 4:16 PM
New Moon, 0% visible
Pressure 30.15 in
Visibility 10.0 miles
Clouds Few 13000 ft
Mostly Cloudy 20000 ft
Windchill 37 °F
Dew Point 14 °F
Humidity 39%
Rainfall 0.00 in
Snow Depth Not available.
UV 0 out of 12
Pollen .10 out of 12
Air Quality Not available.
Flu Activity Not available.
METAR KMHT 222053Z 21007KT 10SM FEW130 BKN200 04/M14 A3009 RMK AO2 SLP209 T00391139 56025

More Conditions Fewer Conditions

Pressure 30.15 in
Visibility 10.0 miles
Clouds Few 13000 ft
Mostly Cloudy 20000 ft
Windchill 37 °F
Dew Point 14 °F
Humidity 39%
Rainfall 0.00 in
Snow Depth Not available.
UV 0 out of 12
Pollen .10 out of 12
Air Quality Not available.
Flu Activity Not available.
METAR KMHT 222053Z 21007KT 10SM FEW130 BKN200 04/M14 A3009 RMK AO2 SLP209 T00391139 56025

More Conditions Fewer Conditions

10-Day Weather Forecast

Almanac

Astronomy

Nov. 22, 2014 Rise Set
Actual Time
Civil Twilight
Nautical Twilight
Astronomical Twilight
Moon
Length of Visible Light
Length of Day
Tomorrow will be .
, % of the Moon is Illuminated

Today's Extremes

State Highs State Lows

Community

WunderPhotos

Upload Photos

1,772,904 photos uploaded!

WunderBlogs® & News

Nearby

Air Quality

  Air Quality AQ Index Pollutant
Not available.

Snow Depth

Station Depth Elevation

Earthquake Activity

City Distance Mag. Time & Date
Minimum magnitude displayed is 2.5.

Coastal Water Temperatures

Place Temperature

Nearby Weather Stations